Time;durP1;ratioP1;P1;durP2;ratioP2;P2;SDS_P1;SDS_P2;PMS_P1;PMS_P2;Temp;Humidity;BMP_temperature;BMP_pressure;BME280_temperature;BME280_humidity;BME280_pressure;Samples;Min_cycle;Max_cycle;Signal;HPM_P1;HPM_P2
2021/10/21 00:01:22;;;;;;;;;;;19.60;64.70;;;;;;5019774;28;19928;-73
2021/10/21 00:03:47;;;;;;;;;;;19.60;64.70;;;;;;5023310;28;19913;-74
2021/10/21 00:06:13;;;;;;;;;;;19.60;64.70;;;;;;5021529;28;20492;-74
2021/10/21 00:08:38;;;;;;;;;;;19.60;64.70;;;;;;5026868;28;19921;-74
2021/10/21 00:11:04;;;;;;;;;;;19.70;64.70;;;;;;5027033;28;19914;-73
2021/10/21 00:13:29;;;;;;;;;;;19.70;64.70;;;;;;5025097;28;19913;-73
2021/10/21 00:15:55;;;;;;;;;;;19.60;64.60;;;;;;5040556;28;19923;-74
2021/10/21 00:18:20;;;;;;;;;;;19.60;64.60;;;;;;5025572;28;20584;-73
2021/10/21 00:20:45;;;;;;;;;;;19.60;64.70;;;;;;5026143;28;19921;-73
2021/10/21 00:23:11;;;;;;;;;;;19.60;64.60;;;;;;5041968;28;19921;-74
2021/10/21 00:25:36;;;;;;;;;;;19.60;64.60;;;;;;5018498;28;19963;-73
2021/10/21 00:28:02;;;;;;;;;;;19.70;64.70;;;;;;5024898;28;20549;-73
2021/10/21 00:30:27;;;;;;;;;;;19.60;64.60;;;;;;5025484;28;19917;-74
2021/10/21 00:32:53;;;;;;;;;;;19.60;64.60;;;;;;5033487;28;19984;-73
2021/10/21 00:35:18;;;;;;;;;;;19.60;64.50;;;;;;5024310;28;19913;-74
2021/10/21 00:37:44;;;;;;;;;;;19.60;64.50;;;;;;5034848;28;19921;-73
2021/10/21 00:40:09;;;;;;;;;;;19.70;64.60;;;;;;5025455;28;19920;-74
2021/10/21 00:42:35;;;;;;;;;;;19.70;64.50;;;;;;5025288;28;19917;-73
2021/10/21 00:45:01;;;;;;;;;;;19.70;64.50;;;;;;5025529;28;19913;-73
2021/10/21 00:47:26;;;;;;;;;;;19.60;64.50;;;;;;5025153;28;20432;-73
2021/10/21 00:49:52;;;;;;;;;;;19.60;64.40;;;;;;5025462;28;19921;-74
2021/10/21 00:52:17;;;;;;;;;;;19.70;64.50;;;;;;5041480;28;20324;-73
2021/10/21 00:54:43;;;;;;;;;;;19.70;64.50;;;;;;5037102;28;19917;-73
2021/10/21 00:57:10;;;;;;;;;;;19.60;64.40;;;;;;5040134;28;19913;-73
2021/10/21 00:59:36;;;;;;;;;;;19.70;64.50;;;;;;5040786;28;19939;-73
2021/10/21 01:02:02;;;;;;;;;;;19.60;64.40;;;;;;5025173;28;19917;-73
2021/10/21 01:04:27;;;;;;;;;;;19.60;64.40;;;;;;5040326;28;19921;-73
2021/10/21 01:06:53;;;;;;;;;;;19.70;64.40;;;;;;5023364;28;19925;-74
2021/10/21 01:09:18;;;;;;;;;;;19.70;64.40;;;;;;5023683;28;19924;-73
2021/10/21 01:11:44;;;;;;;;;;;19.70;64.30;;;;;;5025900;28;20394;-73
2021/10/21 01:14:09;;;;;;;;;;;19.70;64.40;;;;;;5024749;28;19913;-74
2021/10/21 01:16:36;;;;;;;;;;;19.60;64.30;;;;;;5023186;28;19917;-73
2021/10/21 01:19:01;;;;;;;;;;;19.70;64.30;;;;;;5025227;28;19913;-73
2021/10/21 01:21:27;;;;;;;;;;;19.60;64.30;;;;;;5025160;28;20024;-73
2021/10/21 01:23:52;;;;;;;;;;;19.70;64.30;;;;;;5025317;28;19979;-73
2021/10/21 01:26:17;;;;;;;;;;;19.70;64.30;;;;;;5025544;28;19913;-73
2021/10/21 01:28:43;;;;;;;;;;;19.70;64.30;;;;;;5023408;28;20909;-73
2021/10/21 01:31:09;;;;;;;;;;;19.70;64.20;;;;;;5025420;28;19979;-74
2021/10/21 01:33:34;;;;;;;;;;;19.60;64.20;;;;;;5039924;28;20016;-74
2021/10/21 01:36:00;;;;;;;;;;;19.70;64.30;;;;;;5024381;28;19940;-73
2021/10/21 01:38:25;;;;;;;;;;;19.70;64.20;;;;;;5024974;28;19917;-73
2021/10/21 01:40:50;;;;;;;;;;;19.70;64.20;;;;;;5024828;28;19913;-74
2021/10/21 01:43:16;;;;;;;;;;;19.70;64.30;;;;;;5040554;28;20365;-74
2021/10/21 01:45:41;;;;;;;;;;;19.70;64.20;;;;;;5024771;28;19927;-72
2021/10/21 01:48:07;;;;;;;;;;;19.70;64.20;;;;;;5040164;28;19913;-74
2021/10/21 01:50:32;;;;;;;;;;;19.70;64.30;;;;;;5039715;28;19917;-72
2021/10/21 01:52:58;;;;;;;;;;;19.70;64.20;;;;;;5025126;28;19914;-72
2021/10/21 01:55:24;;;;;;;;;;;19.70;64.10;;;;;;5024787;28;20440;-71
2021/10/21 01:57:50;;;;;;;;;;;19.70;64.20;;;;;;5024602;28;19914;-73
2021/10/21 02:00:16;;;;;;;;;;;19.70;64.20;;;;;;5023882;28;19967;-74
2021/10/21 02:02:44;;;;;;;;;;;19.70;64.20;;;;;;5040179;28;19917;-74
2021/10/21 02:05:13;;;;;;;;;;;19.70;64.10;;;;;;5023859;28;20047;-73
2021/10/21 02:07:38;;;;;;;;;;;19.70;64.10;;;;;;5018756;28;19962;-72
2021/10/21 02:10:04;;;;;;;;;;;19.70;64.10;;;;;;5018410;28;19924;-73
2021/10/21 02:12:30;;;;;;;;;;;19.70;64.10;;;;;;5041195;28;20420;-72
2021/10/21 02:14:55;;;;;;;;;;;19.70;64.10;;;;;;5012209;28;19948;-72
2021/10/21 02:17:22;;;;;;;;;;;19.70;64.20;;;;;;5011980;28;19913;-73
2021/10/21 02:19:48;;;;;;;;;;;19.80;64.20;;;;;;5021217;28;19921;-71
2021/10/21 02:22:14;;;;;;;;;;;19.70;64.10;;;;;;4990826;28;21116;-73
2021/10/21 02:24:39;;;;;;;;;;;19.70;64.20;;;;;;5018142;28;19913;-75
2021/10/21 02:27:04;;;;;;;;;;;19.70;64.10;;;;;;5025982;28;19924;-73
2021/10/21 02:29:30;;;;;;;;;;;19.70;64.10;;;;;;5036383;28;19917;-73
2021/10/21 02:31:55;;;;;;;;;;;19.70;64.10;;;;;;5020066;28;20389;-73
2021/10/21 02:34:21;;;;;;;;;;;19.70;64.10;;;;;;5007439;28;19913;-73
2021/10/21 02:36:46;;;;;;;;;;;19.70;64.10;;;;;;5023230;28;19913;-72
2021/10/21 02:39:12;;;;;;;;;;;19.70;64.10;;;;;;5014187;28;19918;-73
2021/10/21 02:41:37;;;;;;;;;;;19.70;64.10;;;;;;5019328;28;19914;-73
2021/10/21 02:44:03;;;;;;;;;;;19.70;64.10;;;;;;5015592;28;19957;-72
2021/10/21 02:46:28;;;;;;;;;;;19.70;64.20;;;;;;5026062;28;20315;-73
2021/10/21 02:48:54;;;;;;;;;;;19.70;64.10;;;;;;5027667;28;19963;-74
2021/10/21 02:51:19;;;;;;;;;;;19.70;64.10;;;;;;5019891;28;20264;-75
2021/10/21 02:53:45;;;;;;;;;;;19.70;64.10;;;;;;5023212;28;19965;-75
2021/10/21 02:56:11;;;;;;;;;;;19.70;64.10;;;;;;5015204;28;19921;-73
2021/10/21 02:58:36;;;;;;;;;;;19.70;64.00;;;;;;5048135;28;19913;-73
2021/10/21 03:01:02;;;;;;;;;;;19.80;64.10;;;;;;5020158;28;19914;-73
2021/10/21 03:03:27;;;;;;;;;;;19.70;64.10;;;;;;5018281;28;19913;-74
2021/10/21 03:05:52;;;;;;;;;;;19.70;64.10;;;;;;5014199;28;19932;-74
2021/10/21 03:08:18;;;;;;;;;;;19.70;64.10;;;;;;5022236;28;19918;-75
2021/10/21 03:10:43;;;;;;;;;;;19.70;64.10;;;;;;5018056;28;20411;-74
2021/10/21 03:13:09;;;;;;;;;;;19.70;64.00;;;;;;5005998;28;19917;-74
2021/10/21 03:15:34;;;;;;;;;;;19.70;64.00;;;;;;5021962;28;19986;-73
2021/10/21 03:18:00;;;;;;;;;;;19.70;64.00;;;;;;5017490;28;19913;-73
2021/10/21 03:20:25;;;;;;;;;;;19.70;64.00;;;;;;5021116;28;20299;-73
2021/10/21 03:22:51;;;;;;;;;;;19.70;64.00;;;;;;5013114;28;19921;-74
2021/10/21 03:25:16;;;;;;;;;;;19.80;64.00;;;;;;5016443;28;19913;-75
2021/10/21 03:27:42;;;;;;;;;;;19.80;64.00;;;;;;5021424;28;19920;-74
2021/10/21 03:30:07;;;;;;;;;;;19.70;64.00;;;;;;5018843;28;20378;-73
2021/10/21 03:32:33;;;;;;;;;;;19.70;64.00;;;;;;5012063;28;19913;-73
2021/10/21 03:34:58;;;;;;;;;;;19.70;64.00;;;;;;5012808;28;19975;-73
2021/10/21 03:37:24;;;;;;;;;;;19.70;64.00;;;;;;5010093;28;20019;-73
2021/10/21 03:39:50;;;;;;;;;;;19.70;64.00;;;;;;5011501;28;19913;-73
2021/10/21 03:42:16;;;;;;;;;;;19.70;64.00;;;;;;5015177;28;19914;-73
2021/10/21 03:44:41;;;;;;;;;;;19.70;64.00;;;;;;5042837;28;19925;-73
2021/10/21 03:47:09;;;;;;;;;;;19.70;64.00;;;;;;5013914;28;19971;-74
2021/10/21 03:49:35;;;;;;;;;;;19.70;63.90;;;;;;5041401;28;19988;-73
2021/10/21 03:52:00;;;;;;;;;;;19.70;64.00;;;;;;5018791;28;19913;-73
2021/10/21 03:54:25;;;;;;;;;;;19.70;63.90;;;;;;5024134;28;19928;-74
2021/10/21 03:56:51;;;;;;;;;;;19.70;63.90;;;;;;5016179;28;19921;-73
2021/10/21 03:59:16;;;;;;;;;;;19.80;64.00;;;;;;5016141;28;20282;-74
2021/10/21 04:01:42;;;;;;;;;;;19.70;63.90;;;;;;5010323;28;19914;-73
2021/10/21 04:04:07;;;;;;;;;;;19.80;63.90;;;;;;5015240;28;19917;-74
2021/10/21 04:06:33;;;;;;;;;;;19.70;63.90;;;;;;5044588;28;19921;-73
2021/10/21 04:08:58;;;;;;;;;;;19.70;63.90;;;;;;5005492;28;19956;-73
2021/10/21 04:11:24;;;;;;;;;;;19.70;63.90;;;;;;5013198;28;20278;-73
2021/10/21 04:13:49;;;;;;;;;;;19.80;63.90;;;;;;5015115;28;19920;-73
2021/10/21 04:16:15;;;;;;;;;;;19.80;63.90;;;;;;5020595;28;20428;-71
2021/10/21 04:18:40;;;;;;;;;;;19.80;63.90;;;;;;5038413;28;19929;-75
2021/10/21 04:21:06;;;;;;;;;;;19.70;63.80;;;;;;5043791;28;19924;-71
2021/10/21 04:23:31;;;;;;;;;;;19.70;63.90;;;;;;5015429;28;19935;-72
2021/10/21 04:25:56;;;;;;;;;;;19.80;63.90;;;;;;5012451;28;19920;-73
2021/10/21 04:28:22;;;;;;;;;;;19.70;63.80;;;;;;4998159;28;19971;-73
2021/10/21 04:30:47;;;;;;;;;;;19.80;63.90;;;;;;5011951;28;19929;-70
2021/10/21 04:33:13;;;;;;;;;;;19.80;63.90;;;;;;5023238;28;19920;-70
2021/10/21 04:35:38;;;;;;;;;;;19.80;63.90;;;;;;5025510;28;19917;-71
2021/10/21 04:38:05;;;;;;;;;;;19.80;64.00;;;;;;5025503;28;19920;-73
2021/10/21 04:40:30;;;;;;;;;;;19.70;64.40;;;;;;5024677;28;19928;-71
2021/10/21 04:42:56;;;;;;;;;;;19.80;64.30;;;;;;5039751;28;19925;-71
2021/10/21 04:45:21;;;;;;;;;;;19.80;64.10;;;;;;5024658;28;19919;-72
2021/10/21 04:47:48;;;;;;;;;;;19.70;64.00;;;;;;5023901;28;20482;-72
2021/10/21 04:50:13;;;;;;;;;;;19.80;64.00;;;;;;5024239;28;19917;-72
2021/10/21 04:52:39;;;;;;;;;;;19.80;64.00;;;;;;5024598;28;19985;-72
2021/10/21 04:55:08;;;;;;;;;;;19.80;63.90;;;;;;5024597;28;19913;-75
2021/10/21 04:57:33;;;;;;;;;;;19.80;63.80;;;;;;5024070;28;19967;-72
2021/10/21 04:59:59;;;;;;;;;;;19.80;63.80;;;;;;5022563;28;20294;-69
2021/10/21 05:02:24;;;;;;;;;;;19.80;63.70;;;;;;5025437;28;19913;-72
2021/10/21 05:04:50;;;;;;;;;;;19.80;63.60;;;;;;5038232;28;20635;-73
2021/10/21 05:07:15;;;;;;;;;;;19.70;63.60;;;;;;5023792;28;19951;-71
2021/10/21 05:09:40;;;;;;;;;;;19.70;63.50;;;;;;5023927;28;20370;-70
2021/10/21 05:12:06;;;;;;;;;;;19.80;63.50;;;;;;5023952;28;19913;-70
2021/10/21 05:14:31;;;;;;;;;;;19.70;63.40;;;;;;5024108;28;19917;-70
2021/10/21 05:16:57;;;;;;;;;;;19.70;63.40;;;;;;5023865;28;20377;-71
2021/10/21 05:19:22;;;;;;;;;;;19.70;63.40;;;;;;5024166;28;19936;-72
2021/10/21 05:21:48;;;;;;;;;;;19.80;63.30;;;;;;5024105;28;19936;-72
2021/10/21 05:24:13;;;;;;;;;;;19.70;63.90;;;;;;5019560;28;19925;-70
2021/10/21 05:26:39;;;;;;;;;;;19.70;63.30;;;;;;5036774;28;19920;-70
2021/10/21 05:29:04;;;;;;;;;;;19.80;63.60;;;;;;5022752;28;20003;-70
2021/10/21 05:31:30;;;;;;;;;;;19.80;64.80;;;;;;5022856;28;19913;-70
2021/10/21 05:33:55;;;;;;;;;;;19.80;65.20;;;;;;5022811;28;19914;-70
2021/10/21 05:36:20;;;;;;;;;;;19.80;65.10;;;;;;5022560;28;19967;-71
2021/10/21 05:38:46;;;;;;;;;;;19.80;64.80;;;;;;5022780;28;20189;-71
2021/10/21 05:41:12;;;;;;;;;;;19.80;64.10;;;;;;5022409;28;19917;-71
2021/10/21 05:43:37;;;;;;;;;;;19.80;63.70;;;;;;5026444;28;19917;-71
2021/10/21 05:46:03;;;;;;;;;;;19.90;62.90;;;;;;5026968;28;19923;-72
2021/10/21 05:48:28;;;;;;;;;;;19.80;62.20;;;;;;5026742;28;19921;-71
2021/10/21 05:50:54;;;;;;;;;;;19.80;62.00;;;;;;5043077;28;20293;-70
2021/10/21 05:53:19;;;;;;;;;;;19.80;61.90;;;;;;5026981;28;19921;-69
2021/10/21 05:55:45;;;;;;;;;;;19.80;61.90;;;;;;5026116;28;19924;-71
2021/10/21 05:58:12;;;;;;;;;;;19.80;62.10;;;;;;5026321;28;20431;-71
2021/10/21 06:00:38;;;;;;;;;;;19.80;62.00;;;;;;5025503;28;19917;-72
2021/10/21 06:03:03;;;;;;;;;;;19.80;62.10;;;;;;5027477;28;20008;-70
2021/10/21 06:05:29;;;;;;;;;;;19.80;62.30;;;;;;5026347;28;19913;-71
2021/10/21 06:07:56;;;;;;;;;;;19.80;62.60;;;;;;5027087;28;19924;-72
2021/10/21 06:10:22;;;;;;;;;;;19.80;62.70;;;;;;5026479;28;19921;-72
2021/10/21 06:12:50;;;;;;;;;;;19.80;62.60;;;;;;5027034;28;20362;-71
2021/10/21 06:15:17;;;;;;;;;;;19.80;62.60;;;;;;5026997;28;20745;-71
2021/10/21 06:17:42;;;;;;;;;;;19.80;62.40;;;;;;5022371;28;19967;-71
2021/10/21 06:20:13;;;;;;;;;;;19.80;62.40;;;;;;5026134;28;20317;-71
2021/10/21 06:22:38;;;;;;;;;;;19.80;62.20;;;;;;5026571;28;19913;-71
2021/10/21 06:25:07;;;;;;;;;;;19.80;62.20;;;;;;5034326;28;19916;-68
2021/10/21 06:27:32;;;;;;;;;;;19.80;62.10;;;;;;5036483;28;19920;-71
2021/10/21 06:29:58;;;;;;;;;;;19.80;62.00;;;;;;5026789;28;19921;-70
2021/10/21 06:32:23;;;;;;;;;;;19.80;62.10;;;;;;5026496;28;19913;-70
2021/10/21 06:34:48;;;;;;;;;;;19.80;62.20;;;;;;5026015;28;20373;-70
2021/10/21 06:37:14;;;;;;;;;;;19.80;62.40;;;;;;5026737;28;19920;-69
2021/10/21 06:39:39;;;;;;;;;;;19.80;62.60;;;;;;5026630;28;19920;-67
2021/10/21 06:42:05;;;;;;;;;;;19.80;62.70;;;;;;5025021;28;19924;-69
2021/10/21 06:44:30;;;;;;;;;;;19.80;62.80;;;;;;5026818;28;19917;-70
2021/10/21 06:46:56;;;;;;;;;;;19.80;62.80;;;;;;5026317;28;19920;-70
2021/10/21 06:49:21;;;;;;;;;;;19.80;62.80;;;;;;5041215;28;20444;-70
2021/10/21 06:51:47;;;;;;;;;;;19.80;62.90;;;;;;5026396;28;19921;-70
2021/10/21 06:54:12;;;;;;;;;;;19.80;62.90;;;;;;5026077;28;19967;-70
2021/10/21 06:56:38;;;;;;;;;;;19.80;63.00;;;;;;5026544;28;20453;-70
2021/10/21 06:59:03;;;;;;;;;;;19.80;63.20;;;;;;5024780;28;19913;-71
2021/10/21 07:01:29;;;;;;;;;;;19.80;64.10;;;;;;5042296;28;19968;-71
2021/10/21 07:03:54;;;;;;;;;;;19.80;65.00;;;;;;5025724;28;20457;-70
2021/10/21 07:06:20;;;;;;;;;;;19.80;65.50;;;;;;5025539;28;19971;-70
2021/10/21 07:08:45;;;;;;;;;;;19.80;65.80;;;;;;5025531;28;19931;-71
2021/10/21 07:11:10;;;;;;;;;;;19.80;65.90;;;;;;5023885;28;20413;-71
2021/10/21 07:13:37;;;;;;;;;;;19.80;65.90;;;;;;5025790;28;19987;-71
2021/10/21 07:16:03;;;;;;;;;;;19.70;65.90;;;;;;5018898;28;20289;-71
2021/10/21 07:18:28;;;;;;;;;;;19.80;65.90;;;;;;5011175;28;19914;-71
2021/10/21 07:20:55;;;;;;;;;;;19.80;66.00;;;;;;5017166;28;19921;-71
2021/10/21 07:23:21;;;;;;;;;;;19.80;65.90;;;;;;5024649;28;22137;-71
2021/10/21 07:25:46;;;;;;;;;;;19.80;66.00;;;;;;5028491;28;20328;-71
2021/10/21 07:28:12;;;;;;;;;;;19.80;66.00;;;;;;5020874;28;19917;-71
2021/10/21 07:30:38;;;;;;;;;;;19.80;65.80;;;;;;5014565;28;19917;-70
2021/10/21 07:33:03;;;;;;;;;;;19.80;65.60;;;;;;5020172;28;19983;-71
2021/10/21 07:35:31;;;;;;;;;;;19.80;65.60;;;;;;5051363;28;19914;-70
2021/10/21 07:38:01;;;;;;;;;;;19.80;65.60;;;;;;5018341;28;20690;-70
2021/10/21 07:40:26;;;;;;;;;;;19.80;65.50;;;;;;5014394;28;20484;-70
2021/10/21 07:42:52;;;;;;;;;;;19.80;65.50;;;;;;5025893;28;19914;-70
2021/10/21 07:45:17;;;;;;;;;;;19.80;65.40;;;;;;5025295;28;19923;-70
2021/10/21 07:47:43;;;;;;;;;;;19.80;65.40;;;;;;5025787;28;19928;-70
2021/10/21 07:50:09;;;;;;;;;;;19.80;65.40;;;;;;5045848;28;19920;-70
2021/10/21 07:52:35;;;;;;;;;;;19.80;65.30;;;;;;5050567;28;20354;-71
2021/10/21 07:55:01;;;;;;;;;;;19.80;65.20;;;;;;5018961;28;20426;-71
2021/10/21 07:57:27;;;;;;;;;;;19.80;65.10;;;;;;5021293;28;19952;-70
2021/10/21 07:59:52;;;;;;;;;;;19.80;65.00;;;;;;5015766;28;19990;-70
2021/10/21 08:02:19;;;;;;;;;;;19.80;65.00;;;;;;5037443;28;19960;-70
2021/10/21 08:04:44;;;;;;;;;;;19.80;64.90;;;;;;5015972;28;19913;-70
2021/10/21 08:07:10;;;;;;;;;;;19.80;64.90;;;;;;5034987;28;19929;-70
2021/10/21 08:09:35;;;;;;;;;;;19.80;64.90;;;;;;5007727;28;20129;-70
2021/10/21 08:12:02;;;;;;;;;;;19.80;64.90;;;;;;5034775;28;19921;-70
2021/10/21 08:14:27;;;;;;;;;;;19.80;64.80;;;;;;5038396;28;19996;-70
2021/10/21 08:16:53;;;;;;;;;;;19.80;64.70;;;;;;5032588;28;19924;-70
2021/10/21 08:19:18;;;;;;;;;;;19.80;64.60;;;;;;5006272;28;19921;-70
2021/10/21 08:21:47;;;;;;;;;;;19.80;64.70;;;;;;5018800;28;19918;-70
2021/10/21 08:24:13;;;;;;;;;;;19.80;64.50;;;;;;5008711;28;19913;-70
2021/10/21 08:26:39;;;;;;;;;;;19.80;64.50;;;;;;5030811;28;19962;-70
2021/10/21 08:29:04;;;;;;;;;;;19.80;64.40;;;;;;5016683;28;19923;-70
2021/10/21 08:31:29;;;;;;;;;;;19.80;64.40;;;;;;5025410;28;19913;-69
2021/10/21 08:33:55;;;;;;;;;;;19.80;64.40;;;;;;5041387;28;19917;-69
2021/10/21 08:36:21;;;;;;;;;;;19.80;64.30;;;;;;5009914;28;20421;-69
2021/10/21 08:38:47;;;;;;;;;;;19.80;64.40;;;;;;5009647;28;20382;-70
2021/10/21 08:41:13;;;;;;;;;;;19.80;64.20;;;;;;5016111;28;19921;-71
2021/10/21 08:43:39;;;;;;;;;;;19.80;64.30;;;;;;5024865;28;19917;-71
2021/10/21 08:46:04;;;;;;;;;;;19.80;64.20;;;;;;5027701;28;19962;-71
2021/10/21 08:48:30;;;;;;;;;;;19.80;64.10;;;;;;5022688;28;20437;-71
2021/10/21 08:50:56;;;;;;;;;;;19.80;64.10;;;;;;5026577;28;19936;-71
2021/10/21 08:53:21;;;;;;;;;;;19.80;64.10;;;;;;5006038;28;19928;-71
2021/10/21 08:55:50;;;;;;;;;;;19.80;64.10;;;;;;5024983;28;19924;-71
2021/10/21 08:58:16;;;;;;;;;;;19.80;64.10;;;;;;5014613;28;19913;-70
2021/10/21 09:00:41;;;;;;;;;;;19.80;64.10;;;;;;5024078;28;19913;-69
2021/10/21 09:03:14;;;;;;;;;;;19.80;64.10;;;;;;5046043;23;20475;-58
2021/10/21 09:05:49;;;;;;;;;;;19.80;63.90;;;;;;5040025;28;20067;-59
2021/10/21 09:08:15;;;;;;;;;;;19.80;64.00;;;;;;5031435;28;19924;-59
2021/10/21 09:10:52;;;;;;;;;;;19.80;64.00;;;;;;5041168;28;20023;-57
2021/10/21 09:13:24;;;;;;;;;;;19.80;63.90;;;;;;5019758;28;19913;-58
2021/10/21 09:15:50;;;;;;;;;;;19.80;63.90;;;;;;5021377;28;19920;-59
2021/10/21 09:18:17;;;;;;;;;;;19.80;63.90;;;;;;5025239;28;19913;-58
2021/10/21 09:20:42;;;;;;;;;;;19.80;63.80;;;;;;5024974;28;19917;-56
2021/10/21 09:23:09;;;;;;;;;;;19.80;63.80;;;;;;5026159;28;19928;-57
2021/10/21 09:25:35;;;;;;;;;;;19.80;63.80;;;;;;5025503;28;19913;-60
2021/10/21 09:28:03;;;;;;;;;;;19.80;63.70;;;;;;5040421;28;19913;-60
2021/10/21 09:30:30;;;;;;;;;;;19.80;63.70;;;;;;5040039;28;20398;-51
2021/10/21 09:33:03;;;;;;;;;;;19.80;63.70;;;;;;5024822;28;19928;-57
2021/10/21 09:35:28;;;;;;;;;;;19.80;63.70;;;;;;5025463;28;19920;-58
2021/10/21 09:37:54;;;;;;;;;;;19.80;63.50;;;;;;5040540;28;19921;-58
2021/10/21 09:40:22;;;;;;;;;;;19.80;63.60;;;;;;5025523;28;19949;-57
2021/10/21 09:42:54;;;;;;;;;;;19.80;63.50;;;;;;5025578;28;19913;-59
2021/10/21 09:45:21;;;;;;;;;;;19.80;63.50;;;;;;5008800;28;19913;-56
2021/10/21 09:47:50;;;;;;;;;;;19.80;63.40;;;;;;5014616;28;19917;-56
2021/10/21 09:50:16;;;;;;;;;;;19.70;63.40;;;;;;5018851;28;19917;-58
2021/10/21 09:52:41;;;;;;;;;;;19.80;63.50;;;;;;5019201;28;19936;-56
2021/10/21 09:55:10;;;;;;;;;;;19.70;63.40;;;;;;5031655;28;19935;-56
2021/10/21 09:57:35;;;;;;;;;;;19.80;63.50;;;;;;5026212;28;20000;-59
2021/10/21 10:00:04;;;;;;;;;;;19.80;63.50;;;;;;5015851;28;19918;-56
2021/10/21 10:02:30;;;;;;;;;;;19.80;63.40;;;;;;5016080;28;19914;-57
2021/10/21 10:04:56;;;;;;;;;;;19.70;63.30;;;;;;5005225;28;20019;-59
2021/10/21 10:07:22;;;;;;;;;;;19.80;63.40;;;;;;5087856;22;19948;-56
2021/10/21 10:09:50;;;;;;;;;;;19.80;63.30;;;;;;5058887;28;19921;-55
2021/10/21 10:12:16;;;;;;;;;;;19.80;63.30;;;;;;5059603;28;20015;-57
2021/10/21 10:14:45;;;;;;;;;;;19.70;63.20;;;;;;5059708;28;19919;-58
2021/10/21 10:17:11;;;;;;;;;;;19.70;63.20;;;;;;5059987;28;19913;-58
2021/10/21 10:19:40;;;;;;;;;;;19.80;63.20;;;;;;5041972;28;19974;-57
2021/10/21 10:22:06;;;;;;;;;;;19.80;63.20;;;;;;5042056;28;19912;-57
2021/10/21 10:24:33;;;;;;;;;;;19.70;63.10;;;;;;5043708;28;20369;-57
2021/10/21 10:26:59;;;;;;;;;;;19.70;63.10;;;;;;5042476;28;19995;-58
2021/10/21 10:29:30;;;;;;;;;;;19.80;63.10;;;;;;5061315;28;19947;-56
2021/10/21 10:31:58;;;;;;;;;;;19.80;63.20;;;;;;5061141;28;19958;-58
2021/10/21 10:34:33;;;;;;;;;;;19.70;63.00;;;;;;5054074;28;19916;-57
2021/10/21 10:37:19;;;;;;;;;;;19.80;63.10;;;;;;5060948;28;20461;-57
2021/10/21 10:39:49;;;;;;;;;;;19.70;63.00;;;;;;5032615;28;19912;-58
2021/10/21 10:42:15;;;;;;;;;;;19.80;63.00;;;;;;5060427;28;19913;-56
2021/10/21 10:44:40;;;;;;;;;;;19.70;63.00;;;;;;5061286;28;19978;-56
2021/10/21 10:47:06;;;;;;;;;;;19.70;63.00;;;;;;5061376;28;19912;-57
2021/10/21 10:49:37;;;;;;;;;;;19.70;63.00;;;;;;5061744;28;20278;-57
2021/10/21 10:52:06;;;;;;;;;;;19.70;62.90;;;;;;5061176;28;19970;-56
2021/10/21 10:54:44;;;;;;;;;;;19.80;63.00;;;;;;5043035;28;19920;-58
2021/10/21 10:57:25;;;;;;;;;;;19.70;62.90;;;;;;5061395;28;19924;-58
2021/10/21 10:59:56;;;;;;;;;;;19.80;62.90;;;;;;5061668;28;19916;-55
2021/10/21 11:02:22;;;;;;;;;;;19.80;62.90;;;;;;5061542;28;20053;-57
2021/10/21 11:04:53;;;;;;;;;;;19.80;62.80;;;;;;5060638;28;20433;-52
2021/10/21 11:07:26;;;;;;;;;;;19.80;62.80;;;;;;5059051;28;19920;-58
2021/10/21 11:09:53;;;;;;;;;;;19.70;62.80;;;;;;5060908;28;19931;-58
2021/10/21 11:12:19;;;;;;;;;;;19.80;62.80;;;;;;5060962;28;20469;-58
2021/10/21 11:14:46;;;;;;;;;;;19.70;62.70;;;;;;5061498;28;19931;-60
2021/10/21 11:17:13;;;;;;;;;;;19.70;62.70;;;;;;5061953;28;19917;-57
2021/10/21 11:19:40;;;;;;;;;;;19.70;62.70;;;;;;5060716;28;20521;-57
2021/10/21 11:22:06;;;;;;;;;;;19.70;62.60;;;;;;5061222;28;19912;-56
2021/10/21 11:24:47;;;;;;;;;;;19.70;62.60;;;;;;5042441;28;19912;-59
2021/10/21 11:27:13;;;;;;;;;;;19.80;62.80;;;;;;5060863;28;20109;-57
2021/10/21 11:29:38;;;;;;;;;;;19.70;62.60;;;;;;5060255;28;20373;-58
2021/10/21 11:32:04;;;;;;;;;;;19.70;62.60;;;;;;5043181;28;19958;-54
2021/10/21 11:34:30;;;;;;;;;;;19.70;62.60;;;;;;5060515;28;19912;-55
2021/10/21 11:36:55;;;;;;;;;;;19.70;62.70;;;;;;5058222;28;20330;-58
2021/10/21 11:39:37;;;;;;;;;;;19.70;62.60;;;;;;5059192;28;19988;-60
2021/10/21 11:42:03;;;;;;;;;;;19.70;62.60;;;;;;5059984;28;20397;-58
2021/10/21 11:44:28;;;;;;;;;;;19.70;62.50;;;;;;5042405;28;19924;-58
2021/10/21 11:46:57;;;;;;;;;;;19.70;62.60;;;;;;5059263;28;19914;-57
2021/10/21 11:49:29;;;;;;;;;;;19.80;62.60;;;;;;5059759;28;20189;-58
2021/10/21 11:52:04;;;;;;;;;;;19.70;62.50;;;;;;5059704;28;20289;-57
2021/10/21 11:54:29;;;;;;;;;;;19.80;62.60;;;;;;5059710;28;19931;-59
2021/10/21 11:56:55;;;;;;;;;;;19.70;62.60;;;;;;5059407;28;20397;-54
2021/10/21 11:59:33;;;;;;;;;;;19.70;62.60;;;;;;5060334;28;19920;-57
2021/10/21 12:02:12;;;;;;;;;;;19.70;62.60;;;;;;5065053;28;19966;-56
2021/10/21 12:04:38;;;;;;;;;;;19.70;62.60;;;;;;5063362;28;19912;-57
2021/10/21 12:07:03;;;;;;;;;;;19.70;62.60;;;;;;5057967;28;19935;-56
2021/10/21 12:09:33;;;;;;;;;;;19.80;62.60;;;;;;5053582;28;20042;-58
2021/10/21 12:12:02;;;;;;;;;;;19.70;62.50;;;;;;5061654;28;19974;-56
2021/10/21 12:14:27;;;;;;;;;;;19.70;62.50;;;;;;5062268;28;19916;-59
2021/10/21 12:16:53;;;;;;;;;;;19.70;62.50;;;;;;5062182;28;20021;-56
2021/10/21 12:19:20;;;;;;;;;;;19.70;62.50;;;;;;5043859;28;19916;-56
2021/10/21 12:21:45;;;;;;;;;;;19.70;62.60;;;;;;5044062;28;20266;-60
2021/10/21 12:24:20;;;;;;;;;;;19.70;62.50;;;;;;5061876;28;19919;-57
2021/10/21 12:26:52;;;;;;;;;;;19.70;62.50;;;;;;5056625;28;19916;-56
2021/10/21 12:29:18;;;;;;;;;;;19.70;62.50;;;;;;5055479;28;19974;-60
2021/10/21 12:31:43;;;;;;;;;;;19.70;62.50;;;;;;5061803;28;20382;-62
2021/10/21 12:34:13;;;;;;;;;;;19.70;62.40;;;;;;5044147;28;19912;-58
2021/10/21 12:36:45;;;;;;;;;;;19.70;62.40;;;;;;5061629;28;20296;-57
2021/10/21 12:39:12;;;;;;;;;;;19.70;62.30;;;;;;5054410;28;19916;-58
2021/10/21 12:41:54;;;;;;;;;;;19.70;62.30;;;;;;5044019;28;20011;-58
2021/10/21 12:44:21;;;;;;;;;;;19.70;62.30;;;;;;5062013;28;19962;-56
2021/10/21 12:46:46;;;;;;;;;;;19.70;62.30;;;;;;5045361;28;19913;-60
2021/10/21 12:49:13;;;;;;;;;;;19.70;62.30;;;;;;5051684;28;19924;-55
2021/10/21 12:51:40;;;;;;;;;;;19.70;62.30;;;;;;5080215;28;19919;-58
2021/10/21 12:54:06;;;;;;;;;;;19.70;62.30;;;;;;5081950;28;19934;-57
2021/10/21 12:56:34;;;;;;;;;;;19.70;62.20;;;;;;5069906;28;20428;-55
2021/10/21 12:59:00;;;;;;;;;;;19.70;62.20;;;;;;5046597;28;19916;-57
2021/10/21 13:01:26;;;;;;;;;;;19.70;62.30;;;;;;5062453;28;19927;-56
2021/10/21 13:03:51;;;;;;;;;;;19.70;62.20;;;;;;5034318;28;19912;-57
2021/10/21 13:06:19;;;;;;;;;;;19.70;62.20;;;;;;5058643;28;20427;-58
2021/10/21 13:08:51;;;;;;;;;;;19.70;62.20;;;;;;5043520;28;19916;-59
2021/10/21 13:11:19;;;;;;;;;;;19.70;62.20;;;;;;5061610;28;20499;-60
2021/10/21 13:13:48;;;;;;;;;;;19.70;62.10;;;;;;5060604;28;19935;-60
2021/10/21 13:16:14;;;;;;;;;;;19.70;62.20;;;;;;5060511;28;20352;-58
2021/10/21 13:18:39;;;;;;;;;;;19.70;62.20;;;;;;5061281;28;19994;-58
2021/10/21 13:21:05;;;;;;;;;;;19.70;62.20;;;;;;5060912;28;19934;-60
2021/10/21 13:23:31;;;;;;;;;;;19.70;62.20;;;;;;5042836;28;19939;-57
2021/10/21 13:25:58;;;;;;;;;;;19.70;62.10;;;;;;5060415;28;19920;-57
2021/10/21 13:28:24;;;;;;;;;;;19.70;62.10;;;;;;5060677;28;19919;-57
2021/10/21 13:30:49;;;;;;;;;;;19.70;62.70;;;;;;5061145;28;20030;-53
2021/10/21 13:33:14;;;;;;;;;;;19.70;62.10;;;;;;5061337;28;19963;-56
2021/10/21 13:35:41;;;;;;;;;;;19.70;62.10;;;;;;5061586;28;19912;-58
2021/10/21 13:38:06;;;;;;;;;;;19.70;62.10;;;;;;5060791;28;19951;-58
2021/10/21 13:40:32;;;;;;;;;;;19.70;62.00;;;;;;5043311;28;19948;-57
2021/10/21 13:42:58;;;;;;;;;;;19.70;62.10;;;;;;5060986;28;19996;-53
2021/10/21 13:45:23;;;;;;;;;;;19.70;62.10;;;;;;5060590;28;19916;-52
2021/10/21 13:47:49;;;;;;;;;;;19.70;62.00;;;;;;5061027;28;19925;-58
2021/10/21 13:50:14;;;;;;;;;;;19.70;62.00;;;;;;5060496;28;20399;-54
2021/10/21 13:52:40;;;;;;;;;;;19.70;62.10;;;;;;5059655;28;20300;-60
2021/10/21 13:55:05;;;;;;;;;;;19.70;62.00;;;;;;5042929;28;19920;-57
2021/10/21 13:57:31;;;;;;;;;;;19.70;62.00;;;;;;5060443;28;20373;-60
2021/10/21 13:59:56;;;;;;;;;;;19.70;62.00;;;;;;5060879;28;20380;-60
2021/10/21 14:02:22;;;;;;;;;;;19.70;61.90;;;;;;5061547;28;20385;-60
2021/10/21 14:04:50;;;;;;;;;;;19.70;62.00;;;;;;5064907;28;19917;-59
2021/10/21 14:07:17;;;;;;;;;;;19.70;61.90;;;;;;5045860;28;19920;-56
2021/10/21 14:09:43;;;;;;;;;;;19.70;61.90;;;;;;5064879;28;20007;-58
2021/10/21 14:12:08;;;;;;;;;;;19.70;61.90;;;;;;5064384;28;20091;-59